sensor_id;sensor_type;location;lat;lon;timestamp;P1;durP1;ratioP1;P2;durP2;ratioP2
58294;SDS011;45705;55.592;37.460;2022-12-07T00:00:49;8.30;;;3.70;;
58294;SDS011;45705;55.592;37.460;2022-12-07T00:03:14;9.63;;;4.13;;
58294;SDS011;45705;55.592;37.460;2022-12-07T00:05:40;5.33;;;3.27;;
58294;SDS011;45705;55.592;37.460;2022-12-07T00:08:06;6.93;;;3.73;;
58294;SDS011;45705;55.592;37.460;2022-12-07T00:10:33;9.13;;;3.53;;
58294;SDS011;45705;55.592;37.460;2022-12-07T00:12:59;8.27;;;3.80;;
58294;SDS011;45705;55.592;37.460;2022-12-07T00:15:24;9.00;;;3.73;;
58294;SDS011;45705;55.592;37.460;2022-12-07T00:17:50;6.43;;;3.43;;
58294;SDS011;45705;55.592;37.460;2022-12-07T00:20:16;8.90;;;4.10;;
58294;SDS011;45705;55.592;37.460;2022-12-07T00:22:41;11.00;;;3.97;;
58294;SDS011;45705;55.592;37.460;2022-12-07T00:25:07;6.47;;;3.43;;
58294;SDS011;45705;55.592;37.460;2022-12-07T00:27:33;9.27;;;3.23;;
58294;SDS011;45705;55.592;37.460;2022-12-07T00:29:58;7.60;;;4.07;;
58294;SDS011;45705;55.592;37.460;2022-12-07T00:32:24;14.50;;;4.43;;
58294;SDS011;45705;55.592;37.460;2022-12-07T00:34:50;8.30;;;4.00;;
58294;SDS011;45705;55.592;37.460;2022-12-07T00:37:15;10.83;;;3.37;;
58294;SDS011;45705;55.592;37.460;2022-12-07T00:39:41;7.67;;;3.97;;
58294;SDS011;45705;55.592;37.460;2022-12-07T00:42:07;6.47;;;3.77;;
58294;SDS011;45705;55.592;37.460;2022-12-07T00:44:33;7.93;;;4.43;;
58294;SDS011;45705;55.592;37.460;2022-12-07T00:46:58;7.53;;;3.67;;
58294;SDS011;45705;55.592;37.460;2022-12-07T00:49:24;8.33;;;3.63;;
58294;SDS011;45705;55.592;37.460;2022-12-07T00:51:50;9.57;;;3.73;;
58294;SDS011;45705;55.592;37.460;2022-12-07T00:54:15;9.37;;;4.03;;
58294;SDS011;45705;55.592;37.460;2022-12-07T00:56:41;8.83;;;4.13;;
58294;SDS011;45705;55.592;37.460;2022-12-07T00:59:07;10.67;;;4.63;;
58294;SDS011;45705;55.592;37.460;2022-12-07T01:01:37;8.33;;;3.70;;
58294;SDS011;45705;55.592;37.460;2022-12-07T01:04:03;8.23;;;3.83;;
58294;SDS011;45705;55.592;37.460;2022-12-07T01:06:29;11.80;;;4.30;;
58294;SDS011;45705;55.592;37.460;2022-12-07T01:08:55;10.23;;;4.13;;
58294;SDS011;45705;55.592;37.460;2022-12-07T01:11:22;11.30;;;4.03;;
58294;SDS011;45705;55.592;37.460;2022-12-07T01:13:53;6.73;;;3.77;;
58294;SDS011;45705;55.592;37.460;2022-12-07T01:16:21;9.57;;;4.13;;
58294;SDS011;45705;55.592;37.460;2022-12-07T01:18:51;7.47;;;4.20;;
58294;SDS011;45705;55.592;37.460;2022-12-07T01:21:19;6.28;;;3.45;;
58294;SDS011;45705;55.592;37.460;2022-12-07T01:23:49;8.93;;;3.90;;
58294;SDS011;45705;55.592;37.460;2022-12-07T01:26:17;10.43;;;4.53;;
58294;SDS011;45705;55.592;37.460;2022-12-07T01:31:15;9.00;;;3.97;;
58294;SDS011;45705;55.592;37.460;2022-12-07T01:33:44;11.33;;;3.77;;
58294;SDS011;45705;55.592;37.460;2022-12-07T01:36:15;9.13;;;3.83;;
58294;SDS011;45705;55.592;37.460;2022-12-07T01:38:43;7.70;;;4.13;;
58294;SDS011;45705;55.592;37.460;2022-12-07T01:41:10;7.00;;;3.90;;
58294;SDS011;45705;55.592;37.460;2022-12-07T01:43:36;8.40;;;4.10;;
58294;SDS011;45705;55.592;37.460;2022-12-07T01:46:02;8.57;;;3.63;;
58294;SDS011;45705;55.592;37.460;2022-12-07T01:48:33;6.73;;;3.70;;
58294;SDS011;45705;55.592;37.460;2022-12-07T01:51:04;13.23;;;4.27;;
58294;SDS011;45705;55.592;37.460;2022-12-07T01:53:33;9.50;;;4.53;;
58294;SDS011;45705;55.592;37.460;2022-12-07T01:56:04;10.07;;;4.47;;
58294;SDS011;45705;55.592;37.460;2022-12-07T01:58:33;10.45;;;4.18;;
58294;SDS011;45705;55.592;37.460;2022-12-07T02:00:58;10.83;;;4.60;;
58294;SDS011;45705;55.592;37.460;2022-12-07T02:03:30;11.63;;;4.53;;
58294;SDS011;45705;55.592;37.460;2022-12-07T02:06:00;8.20;;;4.00;;
58294;SDS011;45705;55.592;37.460;2022-12-07T02:08:26;10.77;;;4.73;;
58294;SDS011;45705;55.592;37.460;2022-12-07T02:10:52;9.90;;;4.40;;
58294;SDS011;45705;55.592;37.460;2022-12-07T02:13:30;13.57;;;4.43;;
58294;SDS011;45705;55.592;37.460;2022-12-07T02:24:00;9.53;;;4.00;;
58294;SDS011;45705;55.592;37.460;2022-12-07T02:26:44;9.23;;;3.47;;
58294;SDS011;45705;55.592;37.460;2022-12-07T02:31:53;6.80;;;4.27;;
58294;SDS011;45705;55.592;37.460;2022-12-07T02:34:24;8.00;;;3.27;;
58294;SDS011;45705;55.592;37.460;2022-12-07T02:36:57;11.23;;;3.77;;
58294;SDS011;45705;55.592;37.460;2022-12-07T02:39:34;10.77;;;4.87;;
58294;SDS011;45705;55.592;37.460;2022-12-07T02:42:12;9.60;;;4.27;;
58294;SDS011;45705;55.592;37.460;2022-12-07T02:44:42;11.67;;;4.30;;
58294;SDS011;45705;55.592;37.460;2022-12-07T02:47:11;9.97;;;3.87;;
58294;SDS011;45705;55.592;37.460;2022-12-07T02:49:40;7.50;;;3.03;;
58294;SDS011;45705;55.592;37.460;2022-12-07T02:52:06;11.13;;;4.60;;
58294;SDS011;45705;55.592;37.460;2022-12-07T02:54:32;9.77;;;4.07;;
58294;SDS011;45705;55.592;37.460;2022-12-07T03:05:05;8.07;;;4.40;;
58294;SDS011;45705;55.592;37.460;2022-12-07T03:15:33;10.68;;;4.47;;
58294;SDS011;45705;55.592;37.460;2022-12-07T03:18:06;11.20;;;3.80;;
58294;SDS011;45705;55.592;37.460;2022-12-07T03:20:36;11.75;;;4.68;;
58294;SDS011;45705;55.592;37.460;2022-12-07T03:23:05;9.30;;;4.18;;
58294;SDS011;45705;55.592;37.460;2022-12-07T03:25:35;11.97;;;4.47;;
58294;SDS011;45705;55.592;37.460;2022-12-07T03:28:06;9.43;;;3.93;;
58294;SDS011;45705;55.592;37.460;2022-12-07T03:30:56;9.33;;;4.50;;
58294;SDS011;45705;55.592;37.460;2022-12-07T03:33:25;9.77;;;4.53;;
58294;SDS011;45705;55.592;37.460;2022-12-07T03:36:33;7.67;;;3.67;;
58294;SDS011;45705;55.592;37.460;2022-12-07T03:38:54;12.50;;;3.70;;
58294;SDS011;45705;55.592;37.460;2022-12-07T03:41:26;12.17;;;4.63;;
58294;SDS011;45705;55.592;37.460;2022-12-07T03:43:56;7.37;;;4.23;;
58294;SDS011;45705;55.592;37.460;2022-12-07T03:49:06;11.60;;;4.53;;
58294;SDS011;45705;55.592;37.460;2022-12-07T03:51:44;9.97;;;4.57;;
58294;SDS011;45705;55.592;37.460;2022-12-07T03:54:19;11.27;;;4.70;;
58294;SDS011;45705;55.592;37.460;2022-12-07T03:56:51;9.47;;;4.63;;
58294;SDS011;45705;55.592;37.460;2022-12-07T03:59:19;8.67;;;3.87;;
58294;SDS011;45705;55.592;37.460;2022-12-07T04:01:51;12.30;;;4.47;;
58294;SDS011;45705;55.592;37.460;2022-12-07T04:04:19;13.33;;;3.87;;
58294;SDS011;45705;55.592;37.460;2022-12-07T04:06:45;12.07;;;4.50;;
58294;SDS011;45705;55.592;37.460;2022-12-07T04:09:11;8.03;;;4.30;;
58294;SDS011;45705;55.592;37.460;2022-12-07T04:11:37;10.33;;;4.80;;
58294;SDS011;45705;55.592;37.460;2022-12-07T04:14:02;11.50;;;4.87;;
58294;SDS011;45705;55.592;37.460;2022-12-07T04:16:44;9.90;;;4.70;;
58294;SDS011;45705;55.592;37.460;2022-12-07T04:19:14;12.23;;;4.60;;
58294;SDS011;45705;55.592;37.460;2022-12-07T04:21:40;12.53;;;5.07;;
58294;SDS011;45705;55.592;37.460;2022-12-07T04:24:06;8.53;;;4.27;;
58294;SDS011;45705;55.592;37.460;2022-12-07T04:26:32;12.43;;;5.07;;
58294;SDS011;45705;55.592;37.460;2022-12-07T04:28:58;9.40;;;4.20;;
58294;SDS011;45705;55.592;37.460;2022-12-07T04:31:24;9.60;;;4.30;;
58294;SDS011;45705;55.592;37.460;2022-12-07T04:33:50;12.37;;;4.50;;
58294;SDS011;45705;55.592;37.460;2022-12-07T04:36:15;10.07;;;4.60;;
58294;SDS011;45705;55.592;37.460;2022-12-07T04:38:41;9.47;;;4.07;;
58294;SDS011;45705;55.592;37.460;2022-12-07T04:41:08;10.53;;;4.03;;
58294;SDS011;45705;55.592;37.460;2022-12-07T04:43:35;9.20;;;3.67;;
58294;SDS011;45705;55.592;37.460;2022-12-07T04:46:01;12.20;;;4.37;;
58294;SDS011;45705;55.592;37.460;2022-12-07T04:48:27;10.27;;;4.13;;
58294;SDS011;45705;55.592;37.460;2022-12-07T04:50:52;9.87;;;4.23;;
58294;SDS011;45705;55.592;37.460;2022-12-07T04:53:18;10.07;;;5.10;;
58294;SDS011;45705;55.592;37.460;2022-12-07T04:55:45;10.63;;;4.73;;
58294;SDS011;45705;55.592;37.460;2022-12-07T04:58:11;8.43;;;3.70;;
58294;SDS011;45705;55.592;37.460;2022-12-07T05:00:38;7.90;;;3.37;;
58294;SDS011;45705;55.592;37.460;2022-12-07T05:03:04;10.33;;;4.40;;
58294;SDS011;45705;55.592;37.460;2022-12-07T05:05:30;13.03;;;4.97;;
58294;SDS011;45705;55.592;37.460;2022-12-07T05:07:56;8.57;;;4.57;;
58294;SDS011;45705;55.592;37.460;2022-12-07T05:10:21;10.03;;;4.20;;
58294;SDS011;45705;55.592;37.460;2022-12-07T05:12:47;6.60;;;3.73;;
58294;SDS011;45705;55.592;37.460;2022-12-07T05:15:14;12.33;;;5.47;;
58294;SDS011;45705;55.592;37.460;2022-12-07T05:17:40;11.90;;;4.67;;
58294;SDS011;45705;55.592;37.460;2022-12-07T05:20:07;8.30;;;4.53;;
58294;SDS011;45705;55.592;37.460;2022-12-07T05:22:33;12.10;;;5.03;;
58294;SDS011;45705;55.592;37.460;2022-12-07T05:24:59;11.90;;;4.50;;
58294;SDS011;45705;55.592;37.460;2022-12-07T05:27:25;8.70;;;4.60;;
58294;SDS011;45705;55.592;37.460;2022-12-07T05:29:51;11.90;;;5.43;;
58294;SDS011;45705;55.592;37.460;2022-12-07T05:32:18;7.87;;;4.00;;
58294;SDS011;45705;55.592;37.460;2022-12-07T05:34:44;10.50;;;4.50;;
58294;SDS011;45705;55.592;37.460;2022-12-07T05:37:10;9.13;;;4.33;;
58294;SDS011;45705;55.592;37.460;2022-12-07T05:39:36;8.40;;;4.57;;
58294;SDS011;45705;55.592;37.460;2022-12-07T05:42:03;10.90;;;4.70;;
58294;SDS011;45705;55.592;37.460;2022-12-07T05:44:41;9.73;;;4.70;;
58294;SDS011;45705;55.592;37.460;2022-12-07T05:47:09;8.57;;;4.70;;
58294;SDS011;45705;55.592;37.460;2022-12-07T05:49:35;7.23;;;3.90;;
58294;SDS011;45705;55.592;37.460;2022-12-07T05:52:01;7.20;;;3.90;;
58294;SDS011;45705;55.592;37.460;2022-12-07T05:54:28;11.43;;;5.80;;
58294;SDS011;45705;55.592;37.460;2022-12-07T05:56:54;7.20;;;4.37;;
58294;SDS011;45705;55.592;37.460;2022-12-07T05:59:20;9.10;;;4.50;;
58294;SDS011;45705;55.592;37.460;2022-12-07T06:01:49;9.93;;;4.22;;
58294;SDS011;45705;55.592;37.460;2022-12-07T06:04:21;12.07;;;4.37;;
58294;SDS011;45705;55.592;37.460;2022-12-07T06:06:48;8.93;;;4.70;;
58294;SDS011;45705;55.592;37.460;2022-12-07T06:09:14;8.70;;;4.70;;
58294;SDS011;45705;55.592;37.460;2022-12-07T06:11:40;10.10;;;4.70;;
58294;SDS011;45705;55.592;37.460;2022-12-07T06:14:24;10.33;;;5.47;;
58294;SDS011;45705;55.592;37.460;2022-12-07T06:16:51;11.30;;;5.10;;
58294;SDS011;45705;55.592;37.460;2022-12-07T06:19:17;12.83;;;5.80;;
58294;SDS011;45705;55.592;37.460;2022-12-07T06:21:42;12.00;;;4.63;;
58294;SDS011;45705;55.592;37.460;2022-12-07T06:24:11;7.93;;;4.03;;
58294;SDS011;45705;55.592;37.460;2022-12-07T06:26:38;9.13;;;4.28;;
58294;SDS011;45705;55.592;37.460;2022-12-07T06:29:04;9.95;;;4.93;;
58294;SDS011;45705;55.592;37.460;2022-12-07T06:31:30;12.68;;;4.60;;
58294;SDS011;45705;55.592;37.460;2022-12-07T06:34:03;16.00;;;5.60;;
58294;SDS011;45705;55.592;37.460;2022-12-07T06:36:31;14.40;;;6.30;;
58294;SDS011;45705;55.592;37.460;2022-12-07T06:38:57;10.40;;;5.47;;
58294;SDS011;45705;55.592;37.460;2022-12-07T06:41:23;10.15;;;4.95;;
58294;SDS011;45705;55.592;37.460;2022-12-07T06:43:49;11.15;;;5.70;;
58294;SDS011;45705;55.592;37.460;2022-12-07T06:46:15;11.60;;;5.90;;
58294;SDS011;45705;55.592;37.460;2022-12-07T06:48:42;11.50;;;4.95;;
58294;SDS011;45705;55.592;37.460;2022-12-07T06:51:08;11.18;;;5.50;;
58294;SDS011;45705;55.592;37.460;2022-12-07T06:53:34;10.35;;;5.63;;
58294;SDS011;45705;55.592;37.460;2022-12-07T06:56:01;12.57;;;5.40;;
58294;SDS011;45705;55.592;37.460;2022-12-07T06:58:27;8.55;;;5.10;;
58294;SDS011;45705;55.592;37.460;2022-12-07T07:00:53;14.50;;;5.83;;
58294;SDS011;45705;55.592;37.460;2022-12-07T07:03:19;14.20;;;5.93;;
58294;SDS011;45705;55.592;37.460;2022-12-07T07:05:45;14.68;;;6.18;;
58294;SDS011;45705;55.592;37.460;2022-12-07T07:08:11;17.73;;;6.13;;
58294;SDS011;45705;55.592;37.460;2022-12-07T07:10:37;10.45;;;5.53;;
58294;SDS011;45705;55.592;37.460;2022-12-07T07:13:03;12.27;;;5.67;;
58294;SDS011;45705;55.592;37.460;2022-12-07T07:15:29;10.82;;;5.80;;
58294;SDS011;45705;55.592;37.460;2022-12-07T07:17:55;13.52;;;6.65;;
58294;SDS011;45705;55.592;37.460;2022-12-07T07:20:21;11.43;;;5.97;;
58294;SDS011;45705;55.592;37.460;2022-12-07T07:22:47;8.02;;;5.05;;
58294;SDS011;45705;55.592;37.460;2022-12-07T07:25:13;14.52;;;6.25;;
58294;SDS011;45705;55.592;37.460;2022-12-07T07:27:40;11.17;;;5.60;;
58294;SDS011;45705;55.592;37.460;2022-12-07T07:30:05;13.30;;;6.27;;
58294;SDS011;45705;55.592;37.460;2022-12-07T07:32:32;15.20;;;6.35;;
58294;SDS011;45705;55.592;37.460;2022-12-07T07:34:58;18.15;;;6.88;;
58294;SDS011;45705;55.592;37.460;2022-12-07T07:37:23;13.53;;;5.87;;
58294;SDS011;45705;55.592;37.460;2022-12-07T07:39:49;13.40;;;6.37;;
58294;SDS011;45705;55.592;37.460;2022-12-07T07:42:15;10.37;;;5.23;;
58294;SDS011;45705;55.592;37.460;2022-12-07T07:44:42;14.50;;;6.30;;
58294;SDS011;45705;55.592;37.460;2022-12-07T07:47:08;18.70;;;6.37;;
58294;SDS011;45705;55.592;37.460;2022-12-07T07:49:34;13.70;;;5.73;;
58294;SDS011;45705;55.592;37.460;2022-12-07T07:51:59;10.00;;;5.67;;
58294;SDS011;45705;55.592;37.460;2022-12-07T07:54:25;9.60;;;5.37;;
58294;SDS011;45705;55.592;37.460;2022-12-07T07:56:51;15.30;;;6.27;;
58294;SDS011;45705;55.592;37.460;2022-12-07T07:59:18;16.10;;;6.90;;
58294;SDS011;45705;55.592;37.460;2022-12-07T08:01:44;15.13;;;5.70;;
58294;SDS011;45705;55.592;37.460;2022-12-07T08:04:09;14.30;;;5.80;;
58294;SDS011;45705;55.592;37.460;2022-12-07T08:06:35;15.03;;;6.80;;
58294;SDS011;45705;55.592;37.460;2022-12-07T08:09:01;19.30;;;6.90;;
58294;SDS011;45705;55.592;37.460;2022-12-07T08:11:27;12.23;;;6.43;;
58294;SDS011;45705;55.592;37.460;2022-12-07T08:13:55;16.47;;;6.67;;
58294;SDS011;45705;55.592;37.460;2022-12-07T08:16:20;15.17;;;7.07;;
58294;SDS011;45705;55.592;37.460;2022-12-07T08:18:46;13.98;;;6.43;;
58294;SDS011;45705;55.592;37.460;2022-12-07T08:21:12;11.07;;;5.33;;
58294;SDS011;45705;55.592;37.460;2022-12-07T08:23:39;15.93;;;7.33;;
58294;SDS011;45705;55.592;37.460;2022-12-07T08:26:09;13.10;;;6.07;;
58294;SDS011;45705;55.592;37.460;2022-12-07T08:28:37;13.55;;;7.03;;
58294;SDS011;45705;55.592;37.460;2022-12-07T08:31:03;17.90;;;6.80;;
58294;SDS011;45705;55.592;37.460;2022-12-07T08:33:31;19.75;;;6.80;;
58294;SDS011;45705;55.592;37.460;2022-12-07T08:36:30;15.30;;;5.73;;
58294;SDS011;45705;55.592;37.460;2022-12-07T08:38:49;9.70;;;4.80;;
58294;SDS011;45705;55.592;37.460;2022-12-07T08:41:15;12.97;;;6.37;;
58294;SDS011;45705;55.592;37.460;2022-12-07T08:43:42;18.13;;;7.27;;
58294;SDS011;45705;55.592;37.460;2022-12-07T08:49:03;14.95;;;6.40;;
58294;SDS011;45705;55.592;37.460;2022-12-07T08:51:38;11.30;;;4.97;;
58294;SDS011;45705;55.592;37.460;2022-12-07T08:54:06;15.63;;;6.17;;
58294;SDS011;45705;55.592;37.460;2022-12-07T08:56:35;13.27;;;4.93;;
58294;SDS011;45705;55.592;37.460;2022-12-07T08:59:02;14.40;;;7.13;;
58294;SDS011;45705;55.592;37.460;2022-12-07T09:01:29;13.97;;;5.70;;
58294;SDS011;45705;55.592;37.460;2022-12-07T09:03:55;12.73;;;5.68;;
58294;SDS011;45705;55.592;37.460;2022-12-07T09:06:20;13.40;;;6.10;;
58294;SDS011;45705;55.592;37.460;2022-12-07T09:08:47;11.13;;;5.63;;
58294;SDS011;45705;55.592;37.460;2022-12-07T09:11:16;15.00;;;5.60;;
58294;SDS011;45705;55.592;37.460;2022-12-07T09:13:42;11.02;;;5.32;;
58294;SDS011;45705;55.592;37.460;2022-12-07T09:16:07;11.45;;;5.35;;
58294;SDS011;45705;55.592;37.460;2022-12-07T09:18:33;12.07;;;6.25;;
58294;SDS011;45705;55.592;37.460;2022-12-07T09:20:59;15.02;;;5.85;;
58294;SDS011;45705;55.592;37.460;2022-12-07T09:23:25;11.68;;;4.88;;
58294;SDS011;45705;55.592;37.460;2022-12-07T09:25:50;13.38;;;5.55;;
58294;SDS011;45705;55.592;37.460;2022-12-07T09:28:16;14.50;;;5.53;;
58294;SDS011;45705;55.592;37.460;2022-12-07T09:30:46;15.05;;;6.50;;
58294;SDS011;45705;55.592;37.460;2022-12-07T09:33:12;10.52;;;5.05;;
58294;SDS011;45705;55.592;37.460;2022-12-07T09:35:38;11.70;;;5.28;;
58294;SDS011;45705;55.592;37.460;2022-12-07T09:38:09;16.63;;;5.80;;
58294;SDS011;45705;55.592;37.460;2022-12-07T09:40:34;11.55;;;5.40;;
58294;SDS011;45705;55.592;37.460;2022-12-07T09:43:00;9.63;;;4.85;;
58294;SDS011;45705;55.592;37.460;2022-12-07T09:45:35;10.82;;;5.00;;
58294;SDS011;45705;55.592;37.460;2022-12-07T09:48:02;10.77;;;4.32;;
58294;SDS011;45705;55.592;37.460;2022-12-07T09:50:29;13.02;;;5.07;;
58294;SDS011;45705;55.592;37.460;2022-12-07T09:52:58;11.40;;;5.05;;
58294;SDS011;45705;55.592;37.460;2022-12-07T09:55:48;12.02;;;5.60;;
58294;SDS011;45705;55.592;37.460;2022-12-07T09:58:20;7.32;;;3.90;;
58294;SDS011;45705;55.592;37.460;2022-12-07T10:00:49;11.05;;;5.25;;
58294;SDS011;45705;55.592;37.460;2022-12-07T10:03:18;9.57;;;4.50;;
58294;SDS011;45705;55.592;37.460;2022-12-07T10:05:46;13.07;;;5.43;;
58294;SDS011;45705;55.592;37.460;2022-12-07T10:08:14;14.93;;;5.35;;
58294;SDS011;45705;55.592;37.460;2022-12-07T10:10:42;16.27;;;5.32;;
58294;SDS011;45705;55.592;37.460;2022-12-07T10:13:19;11.20;;;5.25;;
58294;SDS011;45705;55.592;37.460;2022-12-07T10:15:55;9.90;;;5.35;;
58294;SDS011;45705;55.592;37.460;2022-12-07T10:23:39;9.75;;;4.78;;
58294;SDS011;45705;55.592;37.460;2022-12-07T10:26:19;20.40;;;6.35;;
58294;SDS011;45705;55.592;37.460;2022-12-07T10:28:52;9.70;;;4.70;;
58294;SDS011;45705;55.592;37.460;2022-12-07T10:31:18;8.70;;;4.38;;
58294;SDS011;45705;55.592;37.460;2022-12-07T10:33:53;13.32;;;6.28;;
58294;SDS011;45705;55.592;37.460;2022-12-07T10:37:06;10.82;;;4.22;;
58294;SDS011;45705;55.592;37.460;2022-12-07T10:39:14;7.43;;;4.45;;
58294;SDS011;45705;55.592;37.460;2022-12-07T10:42:02;12.05;;;5.18;;
58294;SDS011;45705;55.592;37.460;2022-12-07T10:44:29;11.43;;;5.70;;
58294;SDS011;45705;55.592;37.460;2022-12-07T10:52:41;16.23;;;5.20;;
58294;SDS011;45705;55.592;37.460;2022-12-07T11:01:10;11.88;;;5.70;;
58294;SDS011;45705;55.592;37.460;2022-12-07T11:04:10;16.17;;;5.85;;
58294;SDS011;45705;55.592;37.460;2022-12-07T11:06:57;8.85;;;4.75;;
58294;SDS011;45705;55.592;37.460;2022-12-07T11:10:11;13.90;;;5.22;;
58294;SDS011;45705;55.592;37.460;2022-12-07T11:12:14;18.75;;;5.22;;
58294;SDS011;45705;55.592;37.460;2022-12-07T11:17:18;12.52;;;5.28;;
58294;SDS011;45705;55.592;37.460;2022-12-07T11:25:18;8.65;;;4.80;;
58294;SDS011;45705;55.592;37.460;2022-12-07T11:33:09;13.40;;;5.30;;
58294;SDS011;45705;55.592;37.460;2022-12-07T11:35:45;16.73;;;6.15;;
58294;SDS011;45705;55.592;37.460;2022-12-07T11:39:07;13.45;;;4.60;;
58294;SDS011;45705;55.592;37.460;2022-12-07T11:41:32;14.00;;;5.70;;
58294;SDS011;45705;55.592;37.460;2022-12-07T11:44:47;11.13;;;5.88;;
58294;SDS011;45705;55.592;37.460;2022-12-07T11:47:13;10.82;;;4.50;;
58294;SDS011;45705;55.592;37.460;2022-12-07T11:55:18;9.02;;;4.68;;
58294;SDS011;45705;55.592;37.460;2022-12-07T12:00:23;13.48;;;6.13;;
58294;SDS011;45705;55.592;37.460;2022-12-07T12:02:51;17.90;;;6.40;;
58294;SDS011;45705;55.592;37.460;2022-12-07T12:05:49;17.50;;;6.28;;
58294;SDS011;45705;55.592;37.460;2022-12-07T12:08:20;23.38;;;6.60;;
58294;SDS011;45705;55.592;37.460;2022-12-07T12:13:56;14.30;;;7.30;;
58294;SDS011;45705;55.592;37.460;2022-12-07T12:21:56;10.98;;;5.03;;
58294;SDS011;45705;55.592;37.460;2022-12-07T12:24:50;10.55;;;5.75;;
58294;SDS011;45705;55.592;37.460;2022-12-07T12:27:21;14.57;;;6.13;;
58294;SDS011;45705;55.592;37.460;2022-12-07T12:29:55;14.60;;;6.78;;
58294;SDS011;45705;55.592;37.460;2022-12-07T12:35:01;29.88;;;6.38;;
58294;SDS011;45705;55.592;37.460;2022-12-07T12:40:45;15.70;;;8.13;;
58294;SDS011;45705;55.592;37.460;2022-12-07T12:45:28;18.37;;;7.17;;
58294;SDS011;45705;55.592;37.460;2022-12-07T12:53:03;19.60;;;6.40;;
58294;SDS011;45705;55.592;37.460;2022-12-07T12:58:35;20.88;;;8.90;;
58294;SDS011;45705;55.592;37.460;2022-12-07T13:04:12;15.27;;;6.50;;
58294;SDS011;45705;55.592;37.460;2022-12-07T13:09:17;17.60;;;7.53;;
58294;SDS011;45705;55.592;37.460;2022-12-07T13:12:04;18.43;;;7.87;;
58294;SDS011;45705;55.592;37.460;2022-12-07T13:17:07;14.73;;;6.57;;
58294;SDS011;45705;55.592;37.460;2022-12-07T13:27:43;16.37;;;6.33;;
58294;SDS011;45705;55.592;37.460;2022-12-07T13:30:20;25.53;;;7.43;;
58294;SDS011;45705;55.592;37.460;2022-12-07T13:33:05;20.33;;;7.43;;
58294;SDS011;45705;55.592;37.460;2022-12-07T13:35:34;17.23;;;7.20;;
58294;SDS011;45705;55.592;37.460;2022-12-07T13:38:13;15.10;;;6.67;;
58294;SDS011;45705;55.592;37.460;2022-12-07T13:40:58;19.23;;;8.53;;
58294;SDS011;45705;55.592;37.460;2022-12-07T13:46:34;16.37;;;7.07;;
58294;SDS011;45705;55.592;37.460;2022-12-07T13:51:46;15.53;;;7.73;;
58294;SDS011;45705;55.592;37.460;2022-12-07T13:54:13;20.83;;;8.27;;
58294;SDS011;45705;55.592;37.460;2022-12-07T13:56:39;16.17;;;7.97;;
58294;SDS011;45705;55.592;37.460;2022-12-07T13:59:13;21.80;;;7.63;;
58294;SDS011;45705;55.592;37.460;2022-12-07T14:01:41;14.17;;;6.53;;
58294;SDS011;45705;55.592;37.460;2022-12-07T14:07:01;20.17;;;8.37;;
58294;SDS011;45705;55.592;37.460;2022-12-07T14:09:53;15.63;;;7.73;;
58294;SDS011;45705;55.592;37.460;2022-12-07T14:12:24;12.82;;;6.35;;
58294;SDS011;45705;55.592;37.460;2022-12-07T14:14:50;10.73;;;6.20;;
58294;SDS011;45705;55.592;37.460;2022-12-07T14:17:22;17.20;;;7.03;;
58294;SDS011;45705;55.592;37.460;2022-12-07T14:22:25;11.50;;;6.67;;
58294;SDS011;45705;55.592;37.460;2022-12-07T14:24:57;15.67;;;6.63;;
58294;SDS011;45705;55.592;37.460;2022-12-07T14:27:38;15.60;;;6.90;;
58294;SDS011;45705;55.592;37.460;2022-12-07T14:30:04;11.40;;;6.17;;
58294;SDS011;45705;55.592;37.460;2022-12-07T14:32:31;16.20;;;7.27;;
58294;SDS011;45705;55.592;37.460;2022-12-07T14:35:18;13.45;;;6.03;;
58294;SDS011;45705;55.592;37.460;2022-12-07T14:37:46;12.70;;;6.13;;
58294;SDS011;45705;55.592;37.460;2022-12-07T14:40:14;13.65;;;6.90;;
58294;SDS011;45705;55.592;37.460;2022-12-07T14:42:51;16.93;;;7.50;;
58294;SDS011;45705;55.592;37.460;2022-12-07T14:45:22;34.30;;;7.77;;
58294;SDS011;45705;55.592;37.460;2022-12-07T14:47:48;17.67;;;6.23;;
58294;SDS011;45705;55.592;37.460;2022-12-07T14:50:15;18.27;;;7.30;;
58294;SDS011;45705;55.592;37.460;2022-12-07T14:52:43;23.13;;;7.20;;
58294;SDS011;45705;55.592;37.460;2022-12-07T14:55:27;18.10;;;7.33;;
58294;SDS011;45705;55.592;37.460;2022-12-07T14:57:55;22.93;;;9.03;;
58294;SDS011;45705;55.592;37.460;2022-12-07T15:00:22;20.67;;;7.70;;
58294;SDS011;45705;55.592;37.460;2022-12-07T15:02:49;21.67;;;7.73;;
58294;SDS011;45705;55.592;37.460;2022-12-07T15:05:16;18.10;;;7.73;;
58294;SDS011;45705;55.592;37.460;2022-12-07T15:07:43;21.27;;;8.47;;
58294;SDS011;45705;55.592;37.460;2022-12-07T15:10:16;17.57;;;6.70;;
58294;SDS011;45705;55.592;37.460;2022-12-07T15:12:57;16.83;;;7.63;;
58294;SDS011;45705;55.592;37.460;2022-12-07T15:15:50;12.10;;;6.20;;
58294;SDS011;45705;55.592;37.460;2022-12-07T15:18:17;14.67;;;6.80;;
58294;SDS011;45705;55.592;37.460;2022-12-07T15:20:44;13.60;;;6.07;;
58294;SDS011;45705;55.592;37.460;2022-12-07T15:23:10;20.07;;;7.83;;
58294;SDS011;45705;55.592;37.460;2022-12-07T15:25:36;13.77;;;8.20;;
58294;SDS011;45705;55.592;37.460;2022-12-07T15:28:06;15.33;;;7.10;;
58294;SDS011;45705;55.592;37.460;2022-12-07T15:30:32;18.17;;;7.37;;
58294;SDS011;45705;55.592;37.460;2022-12-07T15:32:57;15.80;;;8.13;;
58294;SDS011;45705;55.592;37.460;2022-12-07T15:35:23;19.73;;;7.43;;
58294;SDS011;45705;55.592;37.460;2022-12-07T15:37:49;13.00;;;6.33;;
58294;SDS011;45705;55.592;37.460;2022-12-07T15:40:14;17.80;;;8.20;;
58294;SDS011;45705;55.592;37.460;2022-12-07T15:42:40;16.13;;;7.43;;
58294;SDS011;45705;55.592;37.460;2022-12-07T15:45:06;18.00;;;7.40;;
58294;SDS011;45705;55.592;37.460;2022-12-07T15:47:35;22.00;;;7.20;;
58294;SDS011;45705;55.592;37.460;2022-12-07T15:50:05;18.93;;;7.77;;
58294;SDS011;45705;55.592;37.460;2022-12-07T15:52:33;12.05;;;6.50;;
58294;SDS011;45705;55.592;37.460;2022-12-07T15:55:00;12.90;;;6.37;;
58294;SDS011;45705;55.592;37.460;2022-12-07T15:59:55;13.57;;;6.80;;
58294;SDS011;45705;55.592;37.460;2022-12-07T16:02:21;18.17;;;8.00;;
58294;SDS011;45705;55.592;37.460;2022-12-07T16:04:47;20.57;;;7.60;;
58294;SDS011;45705;55.592;37.460;2022-12-07T16:07:13;17.70;;;8.43;;
58294;SDS011;45705;55.592;37.460;2022-12-07T16:09:41;22.60;;;8.57;;
58294;SDS011;45705;55.592;37.460;2022-12-07T16:12:07;20.70;;;7.73;;
58294;SDS011;45705;55.592;37.460;2022-12-07T16:14:33;20.90;;;8.63;;
58294;SDS011;45705;55.592;37.460;2022-12-07T16:17:00;15.47;;;6.33;;
58294;SDS011;45705;55.592;37.460;2022-12-07T16:19:25;14.13;;;6.60;;
58294;SDS011;45705;55.592;37.460;2022-12-07T16:21:51;15.47;;;6.73;;
58294;SDS011;45705;55.592;37.460;2022-12-07T16:24:17;20.33;;;7.07;;
58294;SDS011;45705;55.592;37.460;2022-12-07T16:26:43;18.70;;;8.77;;
58294;SDS011;45705;55.592;37.460;2022-12-07T16:29:12;17.63;;;7.37;;
58294;SDS011;45705;55.592;37.460;2022-12-07T16:31:38;18.38;;;8.20;;
58294;SDS011;45705;55.592;37.460;2022-12-07T16:34:04;20.17;;;7.73;;
58294;SDS011;45705;55.592;37.460;2022-12-07T16:36:31;21.27;;;8.67;;
58294;SDS011;45705;55.592;37.460;2022-12-07T16:38:57;16.70;;;7.93;;
58294;SDS011;45705;55.592;37.460;2022-12-07T16:41:27;16.10;;;6.53;;
58294;SDS011;45705;55.592;37.460;2022-12-07T16:43:53;15.57;;;7.15;;
58294;SDS011;45705;55.592;37.460;2022-12-07T16:46:19;16.47;;;8.13;;